Time;durP1;ratioP1;P1;durP2;ratioP2;P2;SDS_P1;SDS_P2;PMS_P1;PMS_P2;Temp;Humidity;BMP_temperature;BMP_pressure;BME280_temperature;BME280_humidity;BME280_pressure;Samples;Min_cycle;Max_cycle;Signal;HPM_P1;HPM_P2
2023/01/23 00:01:15;;;;;;;37.80;20.47;;;3.40;99.90;;;;;;6280249;22;20150;-74
2023/01/23 00:03:41;;;;;;;37.87;20.47;;;3.40;99.90;;;;;;6280171;22;20142;-75
2023/01/23 00:06:11;;;;;;;34.33;20.27;;;3.50;99.90;;;;;;6280554;22;20221;-75
2023/01/23 00:08:38;;;;;;;37.30;20.83;;;3.50;99.90;;;;;;6280230;22;20166;-75
2023/01/23 00:11:17;;;;;;;42.27;20.40;;;3.40;99.90;;;;;;6307844;22;20205;-75
2023/01/23 00:13:44;;;;;;;39.53;20.83;;;3.40;99.90;;;;;;6279977;22;20138;-75
2023/01/23 00:16:14;;;;;;;37.63;20.50;;;3.40;99.90;;;;;;6307901;22;20150;-75
2023/01/23 00:18:39;;;;;;;37.17;21.30;;;3.40;99.90;;;;;;6279917;22;20229;-75
2023/01/23 00:21:10;;;;;;;40.47;20.50;;;3.60;99.90;;;;;;6307720;22;20510;-76
2023/01/23 00:23:36;;;;;;;36.03;20.07;;;3.50;99.90;;;;;;6280281;22;20465;-76
2023/01/23 00:26:07;;;;;;;39.30;21.37;;;3.40;99.90;;;;;;6307589;22;20153;-76
2023/01/23 00:28:32;;;;;;;38.17;19.73;;;3.60;99.90;;;;;;6279429;22;20173;-77
2023/01/23 00:31:12;;;;;;;43.07;21.07;;;3.50;99.90;;;;;;6307332;22;20456;-76
2023/01/23 00:33:42;;;;;;;39.60;20.43;;;3.30;99.90;;;;;;6307454;22;20126;-75
2023/01/23 00:36:08;;;;;;;34.83;20.83;;;3.40;99.90;;;;;;6307290;22;20213;-76
2023/01/23 00:38:35;;;;;;;38.37;20.93;;;3.40;99.90;;;;;;6279923;22;20154;-76
2023/01/23 00:41:01;;;;;;;39.27;21.97;;;3.40;99.90;;;;;;6307234;22;20138;-76
2023/01/23 00:43:27;;;;;;;40.13;22.63;;;3.40;99.90;;;;;;6279777;22;20150;-76
2023/01/23 00:45:54;;;;;;;40.23;21.40;;;3.40;99.90;;;;;;6279911;22;20228;-74
2023/01/23 00:48:19;;;;;;;40.17;21.30;;;3.40;99.90;;;;;;6279723;22;20234;-74
2023/01/23 00:50:45;;;;;;;43.60;21.63;;;3.40;99.90;;;;;;6306882;22;20543;-74
2023/01/23 00:53:12;;;;;;;41.33;22.03;;;3.40;99.90;;;;;;6278896;22;20138;-76
2023/01/23 00:55:38;;;;;;;41.63;22.73;;;3.40;99.90;;;;;;6307076;22;20578;-76
2023/01/23 00:58:04;;;;;;;40.73;22.57;;;3.40;99.90;;;;;;6306687;22;20200;-74
2023/01/23 01:00:30;;;;;;;42.17;22.07;;;3.40;99.90;;;;;;6279903;22;20560;-75
2023/01/23 01:02:55;;;;;;;44.07;22.63;;;3.40;99.90;;;;;;6306876;22;20134;-74
2023/01/23 01:05:21;;;;;;;48.60;22.03;;;3.50;99.90;;;;;;6279509;22;20280;-75
2023/01/23 01:07:47;;;;;;;48.93;21.73;;;3.50;99.90;;;;;;6307267;22;20157;-76
2023/01/23 01:10:13;;;;;;;45.33;23.07;;;3.50;99.90;;;;;;6306407;22;20134;-76
2023/01/23 01:12:39;;;;;;;46.30;23.33;;;3.40;99.90;;;;;;6279441;22;20559;-75
2023/01/23 01:15:06;;;;;;;44.00;22.20;;;3.40;99.90;;;;;;6306883;22;20127;-74
2023/01/23 01:17:32;;;;;;;44.40;23.73;;;3.50;99.90;;;;;;6306755;22;20212;-76
2023/01/23 01:19:59;;;;;;;46.77;23.13;;;3.50;99.90;;;;;;6306253;22;20613;-75
2023/01/23 01:22:24;;;;;;;47.13;21.97;;;3.40;99.90;;;;;;6279999;22;20146;-74
2023/01/23 01:24:50;;;;;;;45.03;21.80;;;3.50;99.90;;;;;;6279079;22;20620;-74
2023/01/23 01:27:16;;;;;;;42.27;21.47;;;3.50;99.90;;;;;;6279859;22;20271;-74
2023/01/23 01:29:42;;;;;;;41.73;21.07;;;3.40;99.90;;;;;;6279089;22;20176;-74
2023/01/23 01:32:08;;;;;;;45.93;21.40;;;3.50;99.90;;;;;;6279368;22;20460;-74
2023/01/23 01:34:33;;;;;;;48.93;22.97;;;3.50;99.90;;;;;;6278978;22;20232;-74
2023/01/23 01:36:59;;;;;;;44.67;22.13;;;3.60;99.90;;;;;;6306630;22;20142;-74
2023/01/23 01:39:25;;;;;;;38.87;21.40;;;3.50;99.90;;;;;;6306434;22;20134;-73
2023/01/23 01:41:50;;;;;;;40.77;20.90;;;3.50;99.90;;;;;;6279243;22;20145;-76
2023/01/23 01:44:19;;;;;;;40.10;21.53;;;3.40;99.90;;;;;;6279253;22;20145;-76
2023/01/23 01:46:45;;;;;;;44.63;22.23;;;3.70;99.90;;;;;;6306764;22;20193;-75
2023/01/23 01:49:18;;;;;;;44.07;22.10;;;3.70;99.90;;;;;;6279105;22;20551;-75
2023/01/23 01:51:54;;;;;;;46.00;22.73;;;3.60;99.90;;;;;;6306456;22;20130;-75
2023/01/23 01:54:31;;;;;;;48.40;24.43;;;3.70;99.90;;;;;;6278893;22;20200;-76
2023/01/23 01:57:03;;;;;;;44.80;23.00;;;3.70;99.90;;;;;;6306423;22;20154;-76
2023/01/23 01:59:32;;;;;;;45.63;22.77;;;3.70;99.90;;;;;;6279020;22;20523;-74
2023/01/23 02:02:03;;;;;;;46.07;23.40;;;3.50;99.90;;;;;;6306424;22;20138;-74
2023/01/23 02:04:32;;;;;;;48.40;23.50;;;3.40;99.90;;;;;;6306793;22;20212;-74
2023/01/23 02:07:01;;;;;;;49.67;24.30;;;3.30;99.90;;;;;;6279111;22;20714;-74
2023/01/23 02:09:27;;;;;;;50.93;23.37;;;3.40;99.90;;;;;;6306156;22;20498;-74
2023/01/23 02:11:53;;;;;;;48.20;24.23;;;3.40;99.90;;;;;;6278943;22;20142;-74
2023/01/23 02:14:19;;;;;;;44.07;22.33;;;3.50;99.90;;;;;;6306637;22;20127;-74
2023/01/23 02:16:49;;;;;;;51.87;23.87;;;3.60;99.90;;;;;;6306422;22;20133;-74
2023/01/23 02:19:38;;;;;;;47.60;24.17;;;3.50;99.90;;;;;;6279010;22;20161;-74
2023/01/23 02:22:42;;;;;;;53.87;23.63;;;3.50;99.90;;;;;;6278723;22;20154;-74
2023/01/23 02:25:26;;;;;;;51.47;23.67;;;3.40;99.90;;;;;;6279042;22;20639;-74
2023/01/23 02:27:52;;;;;;;45.83;22.43;;;3.40;99.90;;;;;;6279240;22;20292;-74
2023/01/23 02:30:20;;;;;;;47.67;24.07;;;3.40;99.90;;;;;;6279100;22;20481;-74
2023/01/23 02:32:46;;;;;;;45.00;22.67;;;3.40;99.90;;;;;;6279020;22;20145;-74
2023/01/23 02:35:25;;;;;;;44.47;22.90;;;3.50;99.90;;;;;;6278936;22;20134;-74
2023/01/23 02:37:53;;;;;;;51.80;23.67;;;3.60;99.90;;;;;;6279157;22;20177;-75
2023/01/23 02:40:21;;;;;;;50.53;24.10;;;3.60;99.90;;;;;;6278661;22;20143;-74
2023/01/23 02:42:49;;;;;;;55.33;25.10;;;3.70;99.90;;;;;;6306402;22;20129;-74
2023/01/23 02:45:15;;;;;;;53.20;23.23;;;3.60;99.90;;;;;;6306565;22;20559;-74
2023/01/23 02:47:40;;;;;;;53.53;23.60;;;3.50;99.90;;;;;;6306263;22;20134;-74
2023/01/23 02:50:07;;;;;;;50.17;25.00;;;3.70;99.90;;;;;;6278660;22;20169;-74
2023/01/23 02:52:34;;;;;;;49.67;25.33;;;3.70;99.90;;;;;;6278558;22;20208;-74
2023/01/23 02:54:59;;;;;;;54.57;26.20;;;3.80;99.90;;;;;;6278766;22;20142;-75
2023/01/23 02:57:25;;;;;;;52.73;25.83;;;3.70;99.90;;;;;;6278562;22;20187;-74
2023/01/23 03:02:37;;;;;;;51.93;25.43;;;3.70;99.90;;;;;;6306319;22;20146;-75
2023/01/23 03:05:03;;;;;;;57.97;23.60;;;3.50;99.90;;;;;;6278647;22;20184;-75
2023/01/23 03:07:29;;;;;;;58.17;25.87;;;3.50;99.90;;;;;;6278523;22;20149;-74
2023/01/23 03:09:55;;;;;;;58.07;25.97;;;3.50;99.90;;;;;;6305957;22;20295;-75
2023/01/23 03:12:20;;;;;;;63.07;25.73;;;3.60;99.90;;;;;;6306153;22;20134;-74
2023/01/23 03:14:47;;;;;;;58.20;25.70;;;3.60;99.90;;;;;;6278893;22;20134;-75
2023/01/23 03:17:14;;;;;;;58.43;26.30;;;3.50;99.90;;;;;;6280189;22;20174;-74
2023/01/23 03:19:40;;;;;;;57.27;26.20;;;3.50;99.90;;;;;;6280454;22;20173;-74
2023/01/23 03:22:06;;;;;;;56.17;25.67;;;3.50;99.90;;;;;;6280520;22;20223;-75
2023/01/23 03:24:33;;;;;;;55.00;26.03;;;3.50;99.90;;;;;;6280903;22;20167;-74
2023/01/23 03:26:59;;;;;;;53.27;26.07;;;3.40;99.90;;;;;;6308457;22;20463;-75
2023/01/23 03:32:12;;;;;;;56.37;23.67;;;3.60;99.90;;;;;;6308216;22;20141;-74
2023/01/23 03:34:38;;;;;;;56.27;25.33;;;3.60;99.90;;;;;;6281006;22;20146;-74
2023/01/23 03:37:06;;;;;;;57.23;26.07;;;3.60;99.90;;;;;;6280388;22;20225;-75
2023/01/23 03:42:19;;;;;;;58.60;25.27;;;3.70;99.90;;;;;;6308234;22;20586;-75
2023/01/23 03:44:45;;;;;;;52.67;26.77;;;3.60;99.90;;;;;;6280628;22;20142;-75
2023/01/23 03:47:10;;;;;;;54.57;25.97;;;3.50;99.90;;;;;;6307982;22;20144;-75
2023/01/23 03:49:36;;;;;;;55.50;25.77;;;3.50;99.90;;;;;;6308017;22;20245;-74
2023/01/23 03:52:02;;;;;;;54.13;26.00;;;3.70;99.90;;;;;;6307791;22;20126;-75
2023/01/23 03:54:28;;;;;;;58.70;26.43;;;3.70;99.90;;;;;;6280849;22;20215;-75
2023/01/23 03:56:54;;;;;;;54.90;24.80;;;3.70;99.90;;;;;;6307702;22;20142;-74
2023/01/23 03:59:19;;;;;;;72.33;27.13;;;3.60;99.90;;;;;;6280706;22;20202;-75
2023/01/23 04:01:46;;;;;;;53.67;25.77;;;3.50;99.90;;;;;;6280682;22;20563;-75
2023/01/23 04:04:14;;;;;;;56.57;26.70;;;3.60;99.90;;;;;;6308090;22;20653;-75
2023/01/23 04:06:40;;;;;;;58.60;26.40;;;3.70;99.90;;;;;;6308145;22;20130;-75
2023/01/23 04:09:05;;;;;;;52.17;26.60;;;3.70;99.90;;;;;;6280315;22;20168;-75
2023/01/23 04:11:31;;;;;;;53.60;25.33;;;3.70;99.90;;;;;;6308121;22;20461;-75
2023/01/23 04:13:57;;;;;;;59.40;25.50;;;3.60;99.90;;;;;;6280646;22;20177;-75
2023/01/23 04:16:27;;;;;;;60.33;26.43;;;3.60;99.90;;;;;;6307804;22;20127;-74
2023/01/23 04:18:54;;;;;;;60.07;26.50;;;3.60;99.90;;;;;;6307516;22;20552;-74
2023/01/23 04:21:20;;;;;;;55.20;24.43;;;3.60;99.90;;;;;;6308010;22;20141;-74
2023/01/23 04:23:46;;;;;;;53.40;24.47;;;3.60;99.90;;;;;;6280747;22;20567;-80
2023/01/23 04:26:12;;;;;;;49.00;25.73;;;3.60;99.90;;;;;;6281027;22;20157;-79
2023/01/23 04:28:37;;;;;;;58.63;25.80;;;3.50;99.90;;;;;;6308345;22;20176;-79
2023/01/23 04:31:04;;;;;;;54.20;25.30;;;3.60;99.90;;;;;;6280748;22;20164;-79
2023/01/23 04:33:29;;;;;;;57.67;24.10;;;3.60;99.90;;;;;;6308087;22;20127;-80
2023/01/23 04:36:01;;;;;;;56.07;25.40;;;3.70;99.90;;;;;;6307947;22;20131;-76
2023/01/23 04:38:28;;;;;;;58.43;25.70;;;3.70;99.90;;;;;;6307684;22;20213;-77
2023/01/23 04:40:55;;;;;;;59.30;25.00;;;3.70;99.90;;;;;;6280296;22;20229;-76
2023/01/23 04:43:20;;;;;;;62.23;25.67;;;3.60;99.90;;;;;;6307519;22;20155;-77
2023/01/23 04:45:49;;;;;;;55.70;24.97;;;3.60;99.90;;;;;;6307525;22;20473;-76
2023/01/23 04:48:15;;;;;;;61.63;25.87;;;3.50;99.90;;;;;;6279662;22;20514;-76
2023/01/23 04:50:40;;;;;;;58.43;24.90;;;3.60;99.90;;;;;;6279975;22;20142;-77
2023/01/23 04:53:06;;;;;;;56.90;25.50;;;3.60;99.90;;;;;;6307467;22;20210;-76
2023/01/23 04:55:32;;;;;;;50.90;25.13;;;3.60;99.90;;;;;;6307605;22;20133;-76
2023/01/23 04:57:58;;;;;;;53.40;25.43;;;3.60;99.90;;;;;;6307964;22;20144;-76
2023/01/23 05:00:24;;;;;;;53.80;24.37;;;3.70;99.90;;;;;;6280004;22;20153;-76
2023/01/23 05:02:50;;;;;;;51.00;23.93;;;3.70;99.90;;;;;;6307271;22;20142;-76
2023/01/23 05:05:19;;;;;;;60.27;24.80;;;3.80;99.90;;;;;;6307316;22;20134;-77
2023/01/23 05:07:49;;;;;;;58.93;26.30;;;3.70;99.90;;;;;;6307521;22;20137;-77
2023/01/23 05:10:15;;;;;;;49.03;23.73;;;3.70;99.90;;;;;;6307351;22;20152;-77
2023/01/23 05:12:41;;;;;;;59.63;25.37;;;3.60;99.90;;;;;;6307569;22;20134;-79
2023/01/23 05:15:08;;;;;;;56.67;25.13;;;3.60;99.90;;;;;;6307356;22;20156;-77
2023/01/23 05:17:33;;;;;;;57.23;24.23;;;3.70;99.90;;;;;;6307297;22;20144;-77
2023/01/23 05:20:00;;;;;;;55.67;25.40;;;3.80;99.90;;;;;;6307164;22;20163;-77
2023/01/23 05:22:26;;;;;;;50.67;23.83;;;3.70;99.90;;;;;;6280058;22;20589;-77
2023/01/23 05:24:52;;;;;;;54.53;24.37;;;3.70;99.90;;;;;;6280021;22;20150;-77
2023/01/23 05:27:17;;;;;;;63.33;26.73;;;3.80;99.90;;;;;;6308034;22;20156;-78
2023/01/23 05:29:43;;;;;;;63.77;24.90;;;3.70;99.90;;;;;;6306518;22;20219;-76
2023/01/23 05:32:09;;;;;;;54.97;23.93;;;3.70;99.90;;;;;;6279595;22;20143;-76
2023/01/23 05:34:34;;;;;;;62.73;26.33;;;3.80;99.90;;;;;;6279469;22;20140;-77
2023/01/23 05:37:01;;;;;;;57.50;24.20;;;3.80;99.90;;;;;;6307162;22;20158;-76
2023/01/23 05:39:26;;;;;;;56.63;24.20;;;3.80;99.90;;;;;;6306772;22;20134;-76
2023/01/23 05:41:52;;;;;;;64.20;27.40;;;3.80;99.90;;;;;;6306967;22;20256;-77
2023/01/23 05:44:17;;;;;;;59.87;25.83;;;3.90;99.90;;;;;;6306793;22;20134;-78
2023/01/23 05:46:43;;;;;;;60.03;25.57;;;3.90;99.90;;;;;;6306921;22;20130;-78
2023/01/23 05:49:09;;;;;;;55.90;24.97;;;3.90;99.90;;;;;;6306887;22;20248;-79
2023/01/23 05:51:35;;;;;;;58.00;23.93;;;3.90;99.90;;;;;;6280458;22;20466;-77
2023/01/23 05:54:01;;;;;;;59.70;25.53;;;3.60;99.90;;;;;;6307133;22;20133;-77
2023/01/23 05:56:27;;;;;;;56.50;23.60;;;3.60;99.90;;;;;;6307000;22;20142;-78
2023/01/23 05:58:54;;;;;;;60.17;25.47;;;3.60;99.90;;;;;;6306993;22;20583;-77
2023/01/23 06:01:19;;;;;;;61.00;24.87;;;3.70;99.90;;;;;;6307227;22;20458;-78
2023/01/23 06:03:45;;;;;;;63.80;25.03;;;3.70;99.90;;;;;;6307346;22;20205;-78
2023/01/23 06:06:11;;;;;;;60.13;26.07;;;3.80;99.90;;;;;;6279307;22;20207;-75
2023/01/23 06:08:37;;;;;;;67.30;25.33;;;3.80;99.90;;;;;;6279432;22;20166;-75
2023/01/23 06:11:03;;;;;;;63.00;26.07;;;3.80;99.90;;;;;;6306745;22;20131;-75
2023/01/23 06:13:30;;;;;;;62.10;24.43;;;3.70;99.90;;;;;;6279826;22;20149;-75
2023/01/23 06:15:55;;;;;;;54.27;24.07;;;3.70;99.90;;;;;;6279197;22;20275;-75
2023/01/23 06:18:22;;;;;;;54.87;25.20;;;3.70;99.90;;;;;;6279653;22;20195;-75
2023/01/23 06:20:55;;;;;;;71.03;25.00;;;3.60;99.90;;;;;;6306767;22;20165;-75
2023/01/23 06:23:21;;;;;;;60.07;24.63;;;3.70;99.90;;;;;;6307052;22;20141;-74
2023/01/23 06:25:46;;;;;;;55.30;24.37;;;3.50;99.90;;;;;;6279118;22;20150;-76
2023/01/23 06:28:12;;;;;;;59.60;23.37;;;3.50;99.90;;;;;;6279567;22;20173;-75
2023/01/23 06:30:39;;;;;;;57.03;23.30;;;3.60;99.90;;;;;;6278992;22;20623;-75
2023/01/23 06:33:04;;;;;;;61.87;24.27;;;3.60;99.90;;;;;;6279032;22;20621;-93
2023/01/23 06:35:30;;;;;;;62.00;23.60;;;3.60;99.90;;;;;;6306655;22;20126;-76
2023/01/23 06:37:56;;;;;;;59.60;25.17;;;3.60;99.90;;;;;;6306800;22;20137;-76
2023/01/23 06:40:21;;;;;;;51.60;23.07;;;3.60;99.90;;;;;;6306563;22;20133;-75
2023/01/23 06:42:47;;;;;;;53.73;25.70;;;3.60;99.90;;;;;;6306550;22;20126;-75
2023/01/23 06:45:13;;;;;;;63.70;24.53;;;3.70;99.90;;;;;;6306068;22;20131;-73
2023/01/23 06:47:39;;;;;;;54.80;23.57;;;3.70;99.90;;;;;;6279411;22;20199;-75
2023/01/23 06:50:05;;;;;;;56.27;24.23;;;3.70;99.90;;;;;;6278702;22;20162;-75
2023/01/23 06:52:31;;;;;;;53.50;24.00;;;3.70;99.90;;;;;;6280894;22;20146;-75
2023/01/23 06:54:57;;;;;;;62.03;24.30;;;3.90;99.90;;;;;;6281482;22;20165;-74
2023/01/23 06:57:23;;;;;;;62.63;24.90;;;3.90;99.90;;;;;;6308613;22;20146;-74
2023/01/23 06:59:49;;;;;;;54.53;25.20;;;3.90;99.90;;;;;;6281156;22;20150;-74
2023/01/23 07:02:15;;;;;;;52.63;23.17;;;3.90;99.90;;;;;;6308223;22;20130;-74
2023/01/23 07:04:40;;;;;;;60.40;25.47;;;3.90;99.90;;;;;;6308385;22;20141;-74
2023/01/23 07:07:06;;;;;;;56.07;24.63;;;3.90;99.90;;;;;;6281178;22;20563;-74
2023/01/23 07:09:32;;;;;;;53.80;24.43;;;3.90;99.90;;;;;;6308534;22;20165;-74
2023/01/23 07:11:57;;;;;;;52.70;23.27;;;3.80;99.90;;;;;;6308276;22;20544;-74
2023/01/23 07:14:25;;;;;;;50.13;22.30;;;3.70;99.90;;;;;;6280914;22;20178;-74
2023/01/23 07:16:53;;;;;;;53.17;24.20;;;3.60;99.90;;;;;;6281285;22;20568;-74
2023/01/23 07:19:19;;;;;;;51.17;24.20;;;3.60;99.90;;;;;;6308484;22;20162;-75
2023/01/23 07:21:47;;;;;;;58.30;24.73;;;3.70;99.90;;;;;;6308489;22;20200;-74
2023/01/23 07:24:13;;;;;;;52.83;23.73;;;3.70;99.90;;;;;;6308319;22;20140;-74
2023/01/23 07:26:40;;;;;;;57.60;25.40;;;3.70;99.90;;;;;;6308564;22;20623;-75
2023/01/23 07:29:07;;;;;;;55.43;23.60;;;3.90;99.90;;;;;;6280684;22;20182;-75
2023/01/23 07:31:33;;;;;;;56.40;22.80;;;3.90;99.90;;;;;;6308401;22;20138;-75
2023/01/23 07:34:03;;;;;;;56.27;22.90;;;3.90;99.90;;;;;;6281244;22;20232;-75
2023/01/23 07:36:29;;;;;;;53.93;23.87;;;3.90;99.90;;;;;;6280962;22;20514;-75
2023/01/23 07:38:57;;;;;;;54.10;23.70;;;3.70;99.90;;;;;;6280723;22;20194;-75
2023/01/23 07:41:23;;;;;;;58.40;23.73;;;3.70;99.90;;;;;;6308462;22;20246;-74
2023/01/23 07:43:48;;;;;;;56.77;25.17;;;3.60;99.90;;;;;;6280706;22;20551;-74
2023/01/23 07:46:14;;;;;;;58.97;24.43;;;3.60;99.90;;;;;;6308408;22;20130;-74
2023/01/23 07:48:41;;;;;;;57.60;24.10;;;3.50;99.90;;;;;;6280857;22;20212;-75
2023/01/23 07:51:06;;;;;;;56.93;24.13;;;3.50;99.90;;;;;;6281022;22;20146;-75
2023/01/23 07:53:32;;;;;;;61.83;26.40;;;3.60;99.90;;;;;;6280789;22;20217;-74
2023/01/23 07:55:58;;;;;;;60.33;25.60;;;3.70;99.90;;;;;;6308381;22;20130;-75
2023/01/23 07:58:24;;;;;;;56.60;25.17;;;3.70;99.90;;;;;;6308611;22;20157;-77
2023/01/23 08:00:49;;;;;;;52.13;23.80;;;3.60;99.90;;;;;;6280962;22;20237;-74
2023/01/23 08:03:15;;;;;;;49.33;24.03;;;3.50;99.90;;;;;;6277536;22;20146;-74
2023/01/23 08:05:40;;;;;;;57.13;24.90;;;3.60;99.90;;;;;;6279897;22;20181;-74
2023/01/23 08:08:07;;;;;;;51.60;24.67;;;3.60;99.90;;;;;;6306830;22;20168;-74
2023/01/23 08:10:33;;;;;;;56.53;24.13;;;3.70;99.90;;;;;;6307686;22;20146;-74
2023/01/23 08:12:59;;;;;;;53.03;24.13;;;3.70;99.90;;;;;;6280068;22;20137;-76
2023/01/23 08:15:25;;;;;;;60.40;24.47;;;3.80;99.90;;;;;;6280351;22;20903;-74
2023/01/23 08:17:50;;;;;;;55.67;24.77;;;3.90;99.90;;;;;;6306349;22;20128;-75
2023/01/23 08:20:16;;;;;;;55.10;25.30;;;3.90;99.90;;;;;;6307107;22;20161;-74
2023/01/23 08:22:41;;;;;;;52.70;23.57;;;3.90;99.90;;;;;;6280492;22;20146;-76
2023/01/23 08:25:09;;;;;;;55.17;24.93;;;3.90;99.90;;;;;;6280618;22;20188;-76
2023/01/23 08:27:35;;;;;;;51.57;21.27;;;3.80;99.90;;;;;;6279905;22;20527;-76
2023/01/23 08:30:01;;;;;;;58.43;24.17;;;3.80;99.90;;;;;;6307795;22;20265;-75
2023/01/23 08:32:26;;;;;;;58.13;25.03;;;3.70;99.90;;;;;;6280519;22;20173;-75
2023/01/23 08:34:54;;;;;;;53.37;24.43;;;3.60;99.90;;;;;;6280233;22;20471;-75
2023/01/23 08:37:19;;;;;;;51.97;23.63;;;3.70;99.90;;;;;;6280840;22;20138;-75
2023/01/23 08:39:45;;;;;;;53.20;23.00;;;3.80;99.90;;;;;;6280618;22;20145;-75
2023/01/23 08:42:12;;;;;;;52.47;23.90;;;3.80;99.90;;;;;;6307861;22;20500;-74
2023/01/23 08:44:38;;;;;;;60.27;25.77;;;3.80;99.90;;;;;;6280332;22;20628;-74
2023/01/23 08:47:03;;;;;;;50.53;23.83;;;3.80;99.90;;;;;;6280411;22;20566;-74
2023/01/23 08:49:29;;;;;;;49.43;24.67;;;3.90;99.90;;;;;;6307495;22;20168;-74
2023/01/23 08:51:56;;;;;;;52.67;23.30;;;4.00;99.90;;;;;;6307719;22;20130;-74
2023/01/23 08:54:21;;;;;;;52.87;23.03;;;4.00;99.90;;;;;;6307439;22;20583;-74
2023/01/23 08:56:47;;;;;;;45.10;20.30;;;4.00;99.90;;;;;;6307950;22;20178;-75
2023/01/23 08:59:13;;;;;;;53.27;24.40;;;4.10;99.90;;;;;;6307260;22;20481;-74
2023/01/23 09:01:38;;;;;;;51.10;23.03;;;4.20;99.90;;;;;;6280455;22;20146;-74
2023/01/23 09:04:04;;;;;;;48.00;24.23;;;4.20;99.90;;;;;;6280243;22;20517;-74
2023/01/23 09:06:30;;;;;;;52.20;24.40;;;4.10;99.90;;;;;;6307771;22;20179;-74
2023/01/23 09:08:55;;;;;;;51.30;24.57;;;4.10;99.90;;;;;;6279869;22;20167;-75
2023/01/23 09:11:22;;;;;;;44.30;22.70;;;4.10;99.90;;;;;;6280153;22;20185;-74
2023/01/23 09:13:49;;;;;;;53.30;24.37;;;4.10;99.90;;;;;;6279751;22;20712;-75
2023/01/23 09:16:15;;;;;;;51.53;23.63;;;4.10;99.90;;;;;;6307597;22;20451;-75
2023/01/23 09:18:41;;;;;;;51.27;24.33;;;4.00;99.90;;;;;;6307211;22;20134;-75
2023/01/23 09:21:09;;;;;;;50.17;24.53;;;4.10;99.90;;;;;;6280288;22;20173;-75
2023/01/23 09:23:35;;;;;;;48.20;24.53;;;4.10;99.90;;;;;;6279847;22;20563;-75
2023/01/23 09:26:08;;;;;;;54.33;24.80;;;4.30;99.90;;;;;;6279875;22;20275;-75
2023/01/23 09:28:40;;;;;;;47.13;23.23;;;4.40;99.90;;;;;;6279728;22;20515;-77
2023/01/23 09:31:08;;;;;;;44.97;23.40;;;4.40;99.90;;;;;;6279986;22;20142;-77
2023/01/23 09:33:34;;;;;;;51.37;24.37;;;4.40;99.90;;;;;;6279966;22;20173;-76
2023/01/23 09:36:00;;;;;;;45.63;22.87;;;4.40;99.90;;;;;;6307314;22;20127;-76
2023/01/23 09:38:26;;;;;;;49.00;24.10;;;4.40;99.90;;;;;;6307201;22;20138;-80
2023/01/23 09:40:57;;;;;;;51.23;23.83;;;4.50;99.90;;;;;;6307163;22;20166;-78
2023/01/23 09:43:47;;;;;;;47.63;23.00;;;4.60;99.90;;;;;;6307235;22;20194;-77
2023/01/23 09:46:21;;;;;;;51.23;24.70;;;4.70;99.90;;;;;;6279654;22;20143;-77
2023/01/23 09:48:52;;;;;;;50.30;23.07;;;4.70;99.90;;;;;;6307043;22;20169;-77
2023/01/23 09:51:33;;;;;;;47.77;23.43;;;4.80;99.90;;;;;;6307133;22;20555;-78
2023/01/23 09:54:10;;;;;;;49.00;22.50;;;4.60;99.90;;;;;;6307003;22;20127;-77
2023/01/23 09:56:42;;;;;;;48.20;23.23;;;4.40;99.90;;;;;;6279546;22;20208;-77
2023/01/23 09:59:37;;;;;;;51.77;24.33;;;4.30;99.90;;;;;;6307167;22;20586;-77
2023/01/23 10:02:14;;;;;;;46.97;24.10;;;4.30;99.90;;;;;;6307029;22;20132;-77
2023/01/23 10:04:39;;;;;;;45.63;22.30;;;4.40;99.90;;;;;;6307037;22;20140;-78
2023/01/23 10:07:31;;;;;;;45.67;23.63;;;4.40;99.90;;;;;;6281482;22;20482;-78
2023/01/23 10:10:31;;;;;;;47.47;23.60;;;4.40;99.90;;;;;;6307356;22;20484;-78
2023/01/23 10:13:18;;;;;;;50.13;24.10;;;4.60;99.90;;;;;;6307169;22;20133;-78
2023/01/23 10:16:14;;;;;;;49.90;24.43;;;4.80;99.90;;;;;;6307320;22;20140;-77
2023/01/23 10:18:53;;;;;;;44.93;22.20;;;4.90;99.90;;;;;;6306939;22;20218;-77
2023/01/23 10:21:24;;;;;;;45.40;22.53;;;4.90;99.90;;;;;;6307163;22;20461;-77
2023/01/23 10:23:56;;;;;;;44.97;23.53;;;5.00;99.90;;;;;;6279732;22;20482;-77
2023/01/23 10:26:25;;;;;;;42.87;21.80;;;5.20;99.90;;;;;;6308823;22;20525;-79
2023/01/23 10:28:58;;;;;;;43.83;23.43;;;5.10;99.90;;;;;;6308932;22;20165;-77
2023/01/23 10:31:40;;;;;;;58.80;36.50;;;4.90;99.90;;;;;;6309125;22;20150;-78
2023/01/23 10:34:14;;;;;;;44.57;23.53;;;5.00;99.90;;;;;;6309378;22;20131;-78
2023/01/23 10:37:04;;;;;;;45.50;23.27;;;5.00;99.90;;;;;;6308846;22;20130;-77
2023/01/23 10:39:46;;;;;;;40.23;19.07;;;5.20;99.90;;;;;;6281697;22;20142;-78
2023/01/23 10:42:12;;;;;;;43.57;22.80;;;5.20;99.90;;;;;;6281782;22;20143;-81
2023/01/23 10:44:38;;;;;;;44.87;22.23;;;5.20;99.90;;;;;;6282053;22;20146;-81
2023/01/23 10:47:35;;;;;;;39.93;20.87;;;5.20;99.90;;;;;;6281694;22;20523;-80
2023/01/23 10:50:01;;;;;;;42.13;21.10;;;5.10;99.90;;;;;;6288584;22;20516;-81
2023/01/23 10:52:37;;;;;;;42.80;21.50;;;5.00;99.90;;;;;;6281453;22;20146;-82
2023/01/23 10:55:05;;;;;;;38.43;20.43;;;4.90;99.90;;;;;;6281691;22;20146;-82
2023/01/23 10:57:47;;;;;;;46.13;23.20;;;4.70;99.90;;;;;;6309284;22;20158;-80
2023/01/23 11:00:34;;;;;;;43.23;20.87;;;4.60;99.90;;;;;;6309161;22;20667;-82
2023/01/23 11:03:19;;;;;;;48.10;22.70;;;4.80;99.90;;;;;;6281315;22;20141;-81
2023/01/23 11:06:10;;;;;;;45.40;23.77;;;4.90;99.90;;;;;;6281125;22;20130;-81
2023/01/23 11:08:55;;;;;;;47.40;22.27;;;4.90;99.90;;;;;;6280242;22;20641;-81
2023/01/23 11:11:32;;;;;;;46.83;21.87;;;5.10;99.90;;;;;;6308473;22;20134;-81
2023/01/23 11:14:20;;;;;;;46.17;21.93;;;5.20;99.90;;;;;;6309123;22;20153;-81
2023/01/23 11:17:01;;;;;;;43.63;21.37;;;5.10;99.90;;;;;;6281688;22;20138;-81
2023/01/23 11:19:31;;;;;;;45.00;22.03;;;5.20;99.90;;;;;;6307848;22;20232;-79
2023/01/23 11:22:01;;;;;;;43.90;22.53;;;5.30;99.90;;;;;;6308298;22;20146;-82
2023/01/23 11:24:36;;;;;;;39.00;19.70;;;5.40;99.90;;;;;;6281121;22;20138;-81
2023/01/23 11:27:26;;;;;;;43.90;22.93;;;5.30;99.90;;;;;;6281443;22;20160;-79
2023/01/23 11:30:07;;;;;;;47.13;23.67;;;5.20;99.90;;;;;;6308758;22;20166;-80
2023/01/23 11:32:41;;;;;;;44.53;23.43;;;5.30;99.90;;;;;;6281344;22;20578;-80
2023/01/23 11:35:42;;;;;;;45.20;22.37;;;5.30;99.90;;;;;;6308396;22;20126;-80
2023/01/23 11:38:12;;;;;;;40.83;21.53;;;5.40;99.90;;;;;;6307226;22;20148;-81
2023/01/23 11:40:38;;;;;;;43.47;22.50;;;5.50;99.90;;;;;;6308443;22;20552;-81
2023/01/23 11:43:12;;;;;;;42.50;22.37;;;5.30;99.90;;;;;;6308538;22;20133;-82
2023/01/23 11:45:46;;;;;;;35.70;16.97;;;5.20;99.90;;;;;;6308445;22;20126;-81
2023/01/23 11:48:27;;;;;;;42.97;21.33;;;4.90;99.90;;;;;;6308218;22;20200;-81
2023/01/23 11:51:04;;;;;;;40.10;21.23;;;4.90;99.90;;;;;;6308502;22;20204;-81
2023/01/23 11:53:46;;;;;;;48.80;24.20;;;5.00;99.90;;;;;;6280893;22;20176;-81
2023/01/23 11:56:46;;;;;;;44.07;21.30;;;5.20;99.90;;;;;;6280785;22;20571;-81
2023/01/23 11:59:53;;;;;;;40.93;20.50;;;5.20;99.90;;;;;;6281080;22;20204;-81
2023/01/23 12:02:48;;;;;;;46.40;22.77;;;5.20;99.90;;;;;;6308522;22;20245;-81
2023/01/23 12:05:34;;;;;;;40.03;21.40;;;5.20;99.90;;;;;;6308409;22;20232;-81
2023/01/23 12:08:19;;;;;;;44.50;21.63;;;5.30;99.90;;;;;;6308302;22;20138;-80
2023/01/23 12:11:12;;;;;;;43.47;22.77;;;5.40;99.90;;;;;;6308375;22;20130;-81
2023/01/23 12:13:48;;;;;;;42.20;22.00;;;5.60;99.90;;;;;;6309178;22;20221;-80
2023/01/23 12:16:27;;;;;;;38.03;21.43;;;5.50;99.90;;;;;;6280966;22;20563;-81
2023/01/23 12:19:19;;;;;;;38.93;22.33;;;5.60;99.90;;;;;;6307680;22;20268;-82
2023/01/23 12:21:56;;;;;;;37.10;20.57;;;5.80;99.90;;;;;;6280502;22;20142;-81
2023/01/23 12:24:38;;;;;;;41.77;22.00;;;5.60;99.90;;;;;;6307869;22;20137;-81
2023/01/23 12:27:43;;;;;;;40.30;20.70;;;5.50;99.90;;;;;;6280675;22;20182;-82
2023/01/23 12:30:14;;;;;;;39.90;20.67;;;5.60;99.90;;;;;;6300596;22;20190;-81
2023/01/23 12:32:45;;;;;;;36.50;17.73;;;5.60;99.90;;;;;;6307628;22;20130;-81
2023/01/23 12:35:13;;;;;;;40.40;20.57;;;5.40;99.90;;;;;;6280438;22;20142;-82
2023/01/23 12:38:00;;;;;;;40.07;19.93;;;5.30;99.90;;;;;;6307732;22;20135;-81
2023/01/23 12:40:39;;;;;;;44.23;20.90;;;5.10;99.90;;;;;;6307675;22;20170;-81
2023/01/23 12:43:27;;;;;;;42.47;21.90;;;5.10;99.90;;;;;;6307525;22;20133;-80
2023/01/23 12:46:00;;;;;;;40.57;20.57;;;5.20;99.90;;;;;;6307788;22;20134;-81
2023/01/23 12:48:36;;;;;;;39.23;22.10;;;5.40;99.90;;;;;;6278968;22;20166;-80
2023/01/23 12:51:11;;;;;;;45.20;20.90;;;5.30;99.90;;;;;;6280667;22;20146;-80
2023/01/23 12:53:40;;;;;;;37.47;21.77;;;5.30;99.90;;;;;;6307490;22;20208;-80
2023/01/23 12:56:18;;;;;;;41.00;20.67;;;5.40;99.90;;;;;;6280123;22;20532;-81
2023/01/23 12:59:00;;;;;;;39.90;20.90;;;5.40;99.90;;;;;;6279937;22;20153;-80